Brookville, Illinois
Current Conditions -  °F | °C
As of 4:35 PM on Friday 31 Oct 2014 (Local Time) from KFEP Reporting Station
Broken Clouds Broken Clouds  
Wind Chill: 29°   Ceiling: 5000
Heat Index: 38°   Visibility: 10mi
Dew Point: 18°   Wind: 17mph
Humidity: 44%   Direction: 10°N
Pressure: 30.36"   Gusts: 25mph
Location:  41.9978°N, 89.6213°W
Report Text: KFEP 312135Z AUTO 01015G22KT 10SM BKN050 03/M08 A3036 RMK AO2 T00341078
Loading
Personal Weather Stations






























Interactive Weather Map
Tropical Storm Tracking
New forecast layout! Learn more

10-Day Weather Forecast

Advertisements
Track Severe Weather on mobile